createdAt,value
2023-02-14T00:01:22.897Z,23.20
2023-02-14T00:03:49.801Z,23.10
2023-02-14T00:06:16.675Z,23.70
2023-02-14T00:08:44.129Z,26.00
2023-02-14T00:11:12.625Z,26.70
2023-02-14T00:13:39.357Z,26.50
2023-02-14T00:16:06.551Z,24.20
2023-02-14T00:18:51.702Z,21.80
2023-02-14T00:21:18.396Z,24.40
2023-02-14T00:23:45.001Z,25.80
2023-02-14T00:26:21.200Z,24.00
2023-02-14T00:28:47.927Z,25.10
2023-02-14T00:31:14.758Z,23.70
2023-02-14T00:33:41.503Z,25.10
2023-02-14T00:36:10.333Z,28.90
2023-02-14T00:38:37.014Z,23.60
2023-02-14T00:41:04.457Z,25.70
2023-02-14T00:43:31.184Z,27.20
2023-02-14T00:45:57.988Z,27.80
2023-02-14T00:48:25.663Z,25.30
2023-02-14T00:50:52.342Z,26.70
2023-02-14T00:53:19.015Z,29.60
2023-02-14T00:55:46.415Z,26.80
2023-02-14T00:58:13.169Z,28.10
2023-02-14T01:00:39.872Z,25.10
2023-02-14T01:03:06.610Z,21.80
2023-02-14T01:05:33.309Z,21.90
2023-02-14T01:07:59.865Z,26.00
2023-02-14T01:10:26.664Z,22.30
2023-02-14T01:12:53.292Z,21.20
2023-02-14T01:15:19.936Z,24.40
2023-02-14T01:17:46.934Z,21.40
2023-02-14T01:20:14.144Z,20.90
2023-02-14T01:22:40.837Z,22.50
2023-02-14T01:25:07.642Z,24.10
2023-02-14T01:27:34.430Z,22.70
2023-02-14T01:30:01.113Z,20.00
2023-02-14T01:32:31.157Z,21.10
2023-02-14T01:34:59.435Z,20.50
2023-02-14T01:37:26.151Z,21.20
2023-02-14T01:39:52.923Z,23.50
2023-02-14T01:42:19.501Z,21.10
2023-02-14T01:44:46.027Z,21.80
2023-02-14T01:47:13.425Z,23.40
2023-02-14T01:49:47.488Z,21.50
2023-02-14T01:52:41.433Z,21.90
2023-02-14T01:55:15.409Z,23.30
2023-02-14T01:57:49.904Z,22.30
2023-02-14T02:00:35.922Z,19.30
2023-02-14T02:03:04.674Z,25.00
2023-02-14T02:05:31.355Z,20.80
2023-02-14T02:08:00.130Z,19.10
2023-02-14T02:10:27.187Z,22.70
2023-02-14T02:12:54.189Z,20.40
2023-02-14T02:15:26.413Z,21.70
2023-02-14T02:18:06.139Z,22.50
2023-02-14T02:20:35.964Z,20.30
2023-02-14T02:23:42.530Z,20.80
2023-02-14T02:26:42.722Z,20.20
2023-02-14T02:29:42.728Z,22.30
2023-02-14T02:33:08.818Z,21.40
2023-02-14T02:36:09.140Z,18.60
2023-02-14T02:38:44.702Z,19.80
2023-02-14T02:41:45.073Z,18.50
2023-02-14T02:44:20.768Z,19.40
2023-02-14T02:47:07.348Z,17.50
2023-02-14T02:50:01.679Z,18.40
2023-02-14T02:53:05.705Z,16.60
2023-02-14T02:55:58.083Z,16.60
2023-02-14T02:58:34.612Z,18.30
2023-02-14T03:01:06.388Z,20.80
2023-02-14T03:03:52.833Z,18.30
2023-02-14T03:06:19.480Z,19.60
2023-02-14T03:08:46.225Z,20.90
2023-02-14T03:11:13.278Z,21.30
2023-02-14T03:14:19.137Z,16.70
2023-02-14T03:17:16.410Z,18.00
2023-02-14T03:20:10.978Z,17.30
2023-02-14T03:23:14.579Z,18.90
2023-02-14T03:26:02.449Z,19.90
2023-02-14T03:28:51.254Z,18.30
2023-02-14T03:31:44.378Z,19.00
2023-02-14T03:37:30.930Z,17.10
2023-02-14T03:40:19.972Z,16.00
2023-02-14T03:42:52.305Z,18.60
2023-02-14T03:45:37.269Z,20.10
2023-02-14T03:48:08.134Z,17.20
2023-02-14T03:50:36.347Z,19.10
2023-02-14T03:53:03.854Z,18.30
2023-02-14T03:55:36.507Z,18.40
2023-02-14T03:58:13.997Z,14.80
2023-02-14T04:00:42.046Z,19.70
2023-02-14T04:03:11.889Z,15.80
2023-02-14T04:05:43.117Z,14.90
2023-02-14T04:08:11.518Z,17.00
2023-02-14T04:10:39.602Z,18.40
2023-02-14T04:13:06.414Z,17.30
2023-02-14T04:15:33.032Z,20.20
2023-02-14T04:18:18.311Z,16.80
2023-02-14T04:20:44.850Z,17.20
2023-02-14T04:23:11.389Z,18.60
2023-02-14T04:25:39.766Z,14.10
2023-02-14T04:28:06.765Z,18.40
2023-02-14T04:30:33.520Z,17.20
2023-02-14T04:33:00.158Z,17.30
2023-02-14T04:35:26.808Z,18.50
2023-02-14T04:37:53.825Z,17.70
2023-02-14T04:40:20.532Z,17.90
2023-02-14T04:42:47.313Z,17.10
2023-02-14T04:45:14.248Z,16.70
2023-02-14T04:47:40.931Z,19.30
2023-02-14T04:50:08.200Z,15.60
2023-02-14T04:52:34.854Z,18.00
2023-02-14T04:55:01.491Z,16.00
2023-02-14T04:57:28.098Z,19.30
2023-02-14T04:59:54.737Z,18.80
2023-02-14T05:02:21.778Z,17.20
2023-02-14T05:04:49.849Z,14.50
2023-02-14T05:07:16.943Z,16.30
2023-02-14T05:09:43.679Z,14.40
2023-02-14T05:12:10.313Z,12.80
2023-02-14T05:14:36.969Z,14.40
2023-02-14T05:17:03.684Z,15.20
2023-02-14T05:19:30.311Z,15.60
2023-02-14T05:21:56.904Z,16.50
2023-02-14T05:24:23.828Z,17.50
2023-02-14T05:26:50.503Z,14.50
2023-02-14T05:29:17.189Z,14.70
2023-02-14T05:31:43.924Z,14.10
2023-02-14T05:34:10.741Z,14.70
2023-02-14T05:36:37.430Z,15.50
2023-02-14T05:39:04.414Z,15.60
2023-02-14T05:41:31.236Z,14.60
2023-02-14T05:43:57.771Z,15.80
2023-02-14T05:46:24.467Z,17.30
2023-02-14T05:48:51.314Z,15.90
2023-02-14T05:51:18.147Z,13.80
2023-02-14T05:53:44.756Z,16.00
2023-02-14T05:56:11.463Z,13.60
2023-02-14T05:58:38.156Z,18.40
2023-02-14T06:01:04.839Z,19.70
2023-02-14T06:03:31.464Z,15.50
2023-02-14T06:05:58.003Z,15.20
2023-02-14T06:08:24.587Z,13.80
2023-02-14T06:10:51.096Z,15.60
2023-02-14T06:13:17.631Z,13.60
2023-02-14T06:15:44.307Z,14.90
2023-02-14T06:18:10.919Z,16.40
2023-02-14T06:20:37.628Z,16.00
2023-02-14T06:23:04.259Z,13.40
2023-02-14T06:25:32.627Z,16.60
2023-02-14T06:27:59.291Z,19.60
2023-02-14T06:30:27.695Z,18.60
2023-02-14T06:32:56.878Z,17.30
2023-02-14T06:35:23.433Z,18.50
2023-02-14T06:37:50.132Z,13.90
2023-02-14T06:40:18.907Z,16.90
2023-02-14T06:42:45.465Z,18.90
2023-02-14T06:45:12.169Z,15.60
2023-02-14T06:47:39.264Z,21.80
2023-02-14T06:50:06.930Z,15.50
2023-02-14T06:52:33.739Z,18.80
2023-02-14T06:55:00.467Z,18.50
2023-02-14T06:57:27.715Z,17.80
2023-02-14T06:59:54.601Z,18.70
2023-02-14T07:02:24.700Z,17.30
2023-02-14T07:04:51.572Z,20.50
2023-02-14T07:07:18.275Z,20.30
2023-02-14T07:09:46.033Z,19.80
2023-02-14T07:12:13.165Z,14.90
2023-02-14T07:14:39.917Z,16.30
2023-02-14T07:17:07.012Z,16.30
2023-02-14T07:19:33.755Z,16.60
2023-02-14T07:22:00.403Z,14.60
2023-02-14T07:24:27.174Z,19.70
2023-02-14T07:26:53.776Z,13.90
2023-02-14T07:29:20.434Z,14.00
2023-02-14T07:31:47.305Z,16.50
2023-02-14T07:34:14.051Z,17.50
2023-02-14T07:36:40.779Z,19.60
2023-02-14T07:39:07.479Z,14.70
2023-02-14T07:41:34.136Z,16.10
2023-02-14T07:44:00.803Z,18.50
2023-02-14T07:46:27.638Z,16.00
2023-02-14T07:48:54.332Z,13.50
2023-02-14T07:51:20.907Z,20.00
2023-02-14T07:53:47.863Z,15.80
2023-02-14T07:56:14.789Z,20.60
2023-02-14T07:58:41.501Z,17.60
2023-02-14T08:01:08.240Z,17.70
2023-02-14T08:03:34.913Z,17.80
2023-02-14T08:06:02.814Z,17.30
2023-02-14T08:08:31.245Z,17.80
2023-02-14T08:10:59.028Z,17.70
2023-02-14T08:13:26.375Z,17.90
2023-02-14T08:16:05.884Z,19.00
2023-02-14T08:18:37.266Z,16.00
2023-02-14T08:21:06.959Z,20.90
2023-02-14T08:23:33.897Z,20.30
2023-02-14T08:26:03.846Z,18.60
2023-02-14T08:28:32.562Z,17.00
2023-02-14T08:30:59.505Z,19.60
2023-02-14T08:33:27.276Z,20.00
2023-02-14T08:35:54.210Z,20.30
2023-02-14T08:38:21.313Z,21.60
2023-02-14T08:40:48.037Z,17.10
2023-02-14T08:43:15.060Z,20.30
2023-02-14T08:45:41.963Z,17.90
2023-02-14T08:48:11.660Z,19.00
2023-02-14T08:50:39.583Z,20.80
2023-02-14T08:53:08.582Z,17.70
2023-02-14T08:55:35.776Z,17.70
2023-02-14T08:58:03.427Z,17.60
2023-02-14T09:00:31.647Z,21.00
2023-02-14T09:02:58.952Z,21.30
2023-02-14T09:05:26.212Z,19.90
2023-02-14T09:07:55.622Z,18.60
2023-02-14T09:10:23.018Z,21.40
2023-02-14T09:12:50.395Z,23.00
2023-02-14T09:15:17.196Z,17.20
2023-02-14T09:17:43.944Z,19.60
2023-02-14T09:20:15.506Z,17.60
2023-02-14T09:22:43.068Z,19.40
2023-02-14T09:25:10.163Z,17.70
2023-02-14T09:27:37.228Z,17.60
2023-02-14T09:30:06.455Z,21.30
2023-02-14T09:32:33.612Z,19.40
2023-02-14T09:35:00.940Z,17.90
2023-02-14T09:37:46.166Z,17.20
2023-02-14T09:40:15.631Z,16.40
2023-02-14T09:43:09.537Z,16.10
2023-02-14T09:45:36.629Z,15.90
2023-02-14T09:48:14.022Z,15.30
2023-02-14T09:51:03.434Z,15.00
2023-02-14T09:53:38.359Z,18.10
2023-02-14T09:56:28.821Z,17.00
2023-02-14T09:59:16.542Z,16.30
2023-02-14T10:01:49.684Z,22.00
2023-02-14T10:04:32.295Z,17.30
2023-02-14T10:07:23.099Z,16.30
2023-02-14T10:10:14.825Z,16.10
2023-02-14T10:12:46.585Z,16.50
2023-02-14T10:15:39.659Z,13.80
2023-02-14T10:18:21.643Z,15.70
2023-02-14T10:20:56.604Z,11.20
2023-02-14T10:23:40.699Z,14.70
2023-02-14T10:26:14.742Z,16.00
2023-02-14T10:28:48.682Z,9.30
2023-02-14T10:31:54.988Z,10.10
2023-02-14T10:34:41.734Z,11.90
2023-02-14T10:38:03.965Z,10.10
2023-02-14T10:40:41.308Z,12.10
2023-02-14T10:43:27.686Z,12.10
2023-02-14T10:46:36.557Z,6.20
2023-02-14T10:49:38.820Z,11.70
2023-02-14T10:52:25.046Z,10.40
2023-02-14T10:54:58.483Z,9.30
2023-02-14T10:57:40.142Z,10.00
2023-02-14T11:00:16.821Z,10.90
2023-02-14T11:02:46.656Z,9.80
2023-02-14T11:05:47.019Z,8.60
2023-02-14T11:08:37.217Z,9.10
2023-02-14T11:11:36.854Z,8.20
2023-02-14T11:14:28.165Z,13.00
2023-02-14T11:16:57.100Z,8.10
2023-02-14T11:19:30.263Z,9.90
2023-02-14T11:21:59.599Z,7.00
2023-02-14T11:24:34.881Z,6.00
2023-02-14T11:27:06.707Z,9.60
2023-02-14T11:29:40.778Z,6.70
2023-02-14T11:35:19.685Z,11.70
2023-02-14T11:37:52.223Z,6.40
2023-02-14T11:40:36.041Z,5.90
2023-02-14T11:43:15.191Z,5.50
2023-02-14T11:45:44.614Z,8.30
2023-02-14T11:48:38.787Z,6.50
2023-02-14T11:51:13.834Z,10.30
2023-02-14T11:53:49.712Z,7.40
2023-02-14T11:56:17.880Z,7.00
2023-02-14T11:58:44.502Z,8.30
2023-02-14T12:01:20.724Z,10.10
2023-02-14T12:03:48.471Z,10.70
2023-02-14T12:06:31.323Z,7.40
2023-02-14T12:09:26.945Z,10.20
2023-02-14T12:11:55.269Z,6.50
2023-02-14T12:14:23.930Z,6.90
2023-02-14T12:17:15.351Z,7.10
2023-02-14T12:19:50.319Z,11.40
2023-02-14T12:22:32.586Z,9.00
2023-02-14T12:25:25.488Z,7.70
2023-02-14T12:28:00.717Z,10.20
2023-02-14T12:30:31.516Z,14.80
2023-02-14T12:32:58.309Z,9.40
2023-02-14T12:35:42.854Z,8.00
2023-02-14T12:38:30.295Z,8.50
2023-02-14T12:41:18.307Z,8.40
2023-02-14T12:44:29.482Z,6.20
2023-02-14T12:46:59.384Z,5.20
2023-02-14T12:50:16.553Z,8.90
2023-02-14T12:53:06.400Z,6.70
2023-02-14T12:56:28.066Z,7.50
2023-02-14T12:58:54.659Z,6.70
2023-02-14T13:01:54.939Z,10.40
2023-02-14T13:04:52.691Z,9.00
2023-02-14T13:07:37.711Z,9.20
2023-02-14T13:10:30.477Z,8.20
2023-02-14T13:13:08.896Z,7.90
2023-02-14T13:15:58.927Z,7.70
2023-02-14T13:18:48.278Z,10.60
2023-02-14T13:21:18.484Z,12.80
2023-02-14T13:23:48.118Z,8.40
2023-02-14T13:26:36.443Z,11.90
2023-02-14T13:29:09.756Z,10.50
2023-02-14T13:31:37.485Z,8.50
2023-02-14T13:34:13.162Z,8.90
2023-02-14T13:36:40.188Z,10.30
2023-02-14T13:39:09.149Z,11.00
2023-02-14T13:41:41.144Z,10.30
2023-02-14T13:44:08.805Z,10.40
2023-02-14T13:46:36.418Z,10.80
2023-02-14T13:49:03.089Z,9.80
2023-02-14T13:51:51.583Z,11.80
2023-02-14T13:54:44.443Z,10.60
2023-02-14T13:57:33.580Z,9.40
2023-02-14T14:00:18.649Z,10.10
2023-02-14T14:02:54.402Z,9.60
2023-02-14T14:05:34.838Z,11.50
2023-02-14T14:08:19.997Z,10.70
2023-02-14T14:10:50.045Z,12.30
2023-02-14T14:13:41.599Z,14.00
2023-02-14T14:16:23.575Z,11.50
2023-02-14T14:18:58.148Z,11.10
2023-02-14T14:21:38.706Z,10.80
2023-02-14T14:24:24.507Z,12.70
2023-02-14T14:27:03.922Z,13.70
2023-02-14T14:29:46.290Z,12.30
2023-02-14T14:32:30.342Z,10.40
2023-02-14T14:35:22.668Z,14.00
2023-02-14T14:37:57.891Z,11.80
2023-02-14T14:40:31.554Z,10.90
2023-02-14T14:43:13.098Z,15.30
2023-02-14T14:45:42.941Z,12.20
2023-02-14T14:48:48.605Z,11.00
2023-02-14T14:51:30.973Z,11.90
2023-02-14T14:54:13.935Z,9.00
2023-02-14T14:57:01.163Z,12.90
2023-02-14T14:59:34.878Z,10.40
2023-02-14T15:02:04.906Z,13.70
2023-02-14T15:04:34.526Z,13.60
2023-02-14T15:07:32.521Z,13.50
2023-02-14T15:10:00.149Z,11.90
2023-02-14T15:12:46.400Z,14.30
2023-02-14T15:15:16.611Z,13.90
2023-02-14T15:17:44.066Z,13.50
2023-02-14T15:20:17.477Z,15.00
2023-02-14T15:22:48.197Z,21.80
2023-02-14T15:25:26.566Z,13.80
2023-02-14T15:27:53.780Z,16.30
2023-02-14T15:30:33.468Z,15.60
2023-02-14T15:33:05.031Z,13.40
2023-02-14T15:35:34.670Z,12.80
2023-02-14T15:38:04.776Z,15.20
2023-02-14T15:40:34.493Z,12.00
2023-02-14T15:43:18.055Z,13.80
2023-02-14T15:45:47.552Z,18.10
2023-02-14T15:48:27.735Z,17.00
2023-02-14T15:50:58.426Z,12.00
2023-02-14T15:53:36.347Z,14.80
2023-02-14T15:56:28.634Z,12.80
2023-02-14T15:59:16.532Z,10.60
2023-02-14T16:02:01.241Z,11.60
2023-02-14T16:04:31.503Z,10.10
2023-02-14T16:07:27.935Z,11.60
2023-02-14T16:10:25.517Z,11.20
2023-02-14T16:13:05.920Z,11.60
2023-02-14T16:15:37.034Z,16.20
2023-02-14T16:18:16.957Z,8.90
2023-02-14T16:20:48.530Z,9.80
2023-02-14T16:23:27.598Z,9.30
2023-02-14T16:25:56.931Z,10.70
2023-02-14T16:28:27.971Z,9.70
2023-02-14T16:30:57.233Z,9.90
2023-02-14T16:33:29.992Z,11.10
2023-02-14T16:38:27.319Z,11.40
2023-02-14T16:40:54.308Z,9.60
2023-02-14T16:43:21.352Z,13.70
2023-02-14T16:45:50.454Z,13.40
2023-02-14T16:48:19.504Z,11.40
2023-02-14T16:50:47.085Z,15.00
2023-02-14T16:53:38.327Z,15.30
2023-02-14T16:56:05.634Z,13.00
2023-02-14T16:58:34.564Z,17.70
2023-02-14T17:01:02.094Z,12.50
2023-02-14T17:03:29.318Z,13.80
2023-02-14T17:05:57.498Z,13.90
2023-02-14T17:08:28.514Z,13.00
2023-02-14T17:10:56.921Z,15.10
2023-02-14T17:13:25.907Z,13.10
2023-02-14T17:15:53.448Z,16.50
2023-02-14T17:18:22.221Z,18.40
2023-02-14T17:20:49.417Z,25.50
2023-02-14T17:23:16.705Z,17.40
2023-02-14T17:25:47.469Z,16.80
2023-02-14T17:28:15.620Z,14.70
2023-02-14T17:30:43.084Z,19.80
2023-02-14T17:33:10.406Z,18.00
2023-02-14T17:35:38.107Z,17.10
2023-02-14T17:38:05.261Z,21.10
2023-02-14T17:40:32.082Z,27.90
2023-02-14T17:43:00.374Z,26.40
2023-02-14T17:45:27.278Z,26.40
2023-02-14T17:47:53.897Z,27.80
2023-02-14T17:50:20.880Z,35.80
2023-02-14T17:52:47.642Z,42.10
2023-02-14T17:55:15.183Z,41.90
2023-02-14T17:57:42.078Z,33.70
2023-02-14T18:00:11.639Z,21.90
2023-02-14T18:02:38.947Z,25.90
2023-02-14T18:05:07.062Z,22.80
2023-02-14T18:07:33.894Z,42.60
2023-02-14T18:10:00.763Z,52.90
2023-02-14T18:12:27.601Z,57.40
2023-02-14T18:14:55.531Z,139.40
2023-02-14T18:17:22.518Z,114.90
2023-02-14T18:19:49.509Z,115.40
2023-02-14T18:22:16.319Z,90.10
2023-02-14T18:24:43.083Z,119.10
2023-02-14T18:27:09.900Z,122.10
2023-02-14T18:29:38.661Z,126.80
2023-02-14T18:32:05.282Z,125.10
2023-02-14T18:34:35.672Z,90.20
2023-02-14T18:37:03.829Z,73.00
2023-02-14T18:39:32.013Z,68.00
2023-02-14T18:42:01.643Z,56.60
2023-02-14T18:44:28.616Z,51.40
2023-02-14T18:46:55.357Z,63.80
2023-02-14T18:49:22.617Z,44.30
2023-02-14T18:51:49.321Z,39.90
2023-02-14T18:54:16.023Z,55.00
2023-02-14T18:56:42.782Z,52.20
2023-02-14T18:59:12.662Z,46.60
2023-02-14T19:01:42.898Z,43.40
2023-02-14T19:04:11.643Z,39.30
2023-02-14T19:06:41.748Z,39.70
2023-02-14T19:09:14.325Z,43.30
2023-02-14T19:11:41.328Z,40.60
2023-02-14T19:14:12.638Z,48.40
2023-02-14T19:16:54.580Z,44.20
2023-02-14T19:19:22.785Z,43.80
2023-02-14T19:21:50.669Z,48.70
2023-02-14T19:24:19.125Z,58.00
2023-02-14T19:26:46.772Z,66.20
2023-02-14T19:29:16.822Z,101.60
2023-02-14T19:31:48.238Z,138.00
2023-02-14T19:34:22.894Z,329.50
2023-02-14T19:36:51.544Z,214.30
2023-02-14T19:39:22.581Z,80.40
2023-02-14T19:41:52.912Z,70.30
2023-02-14T19:44:21.525Z,60.70
2023-02-14T19:46:49.850Z,74.30
2023-02-14T19:49:19.471Z,64.60
2023-02-14T19:51:48.328Z,58.20
2023-02-14T19:54:15.236Z,67.90
2023-02-14T19:56:45.549Z,61.90
2023-02-14T19:59:20.420Z,55.90
2023-02-14T20:01:51.128Z,52.30
2023-02-14T20:04:27.502Z,52.90
2023-02-14T20:06:56.779Z,59.40
2023-02-14T20:09:24.170Z,56.70
2023-02-14T20:11:54.044Z,55.90
2023-02-14T20:14:25.078Z,56.40
2023-02-14T20:16:54.490Z,63.10
2023-02-14T20:19:26.484Z,98.00
2023-02-14T20:21:53.762Z,87.10
2023-02-14T20:24:23.996Z,79.70
2023-02-14T20:26:52.397Z,82.80
2023-02-14T20:29:23.972Z,76.20
2023-02-14T20:31:56.654Z,61.70
2023-02-14T20:34:23.899Z,52.10
2023-02-14T20:36:55.002Z,54.70
2023-02-14T20:39:27.738Z,53.60
2023-02-14T20:41:54.572Z,62.70
2023-02-14T20:44:21.940Z,71.90
2023-02-14T20:46:51.870Z,80.30
2023-02-14T20:49:22.669Z,106.20
2023-02-14T20:51:52.230Z,97.10
2023-02-14T20:54:22.559Z,141.30
2023-02-14T20:56:50.608Z,132.60
2023-02-14T20:59:44.719Z,139.70
2023-02-14T21:02:11.949Z,147.20
2023-02-14T21:04:39.469Z,192.80
2023-02-14T21:07:09.717Z,219.00
2023-02-14T21:09:41.458Z,231.90
2023-02-14T21:12:08.257Z,399.90
2023-02-14T21:14:34.981Z,295.00
2023-02-14T21:17:03.762Z,282.00
2023-02-14T21:19:31.204Z,266.30
2023-02-14T21:21:58.303Z,378.40
2023-02-14T21:24:25.302Z,417.20
2023-02-14T21:26:56.085Z,441.80
2023-02-14T21:29:22.987Z,452.20
2023-02-14T21:31:49.964Z,384.60
2023-02-14T21:34:23.716Z,456.60
2023-02-14T21:36:52.858Z,462.00
2023-02-14T21:39:24.846Z,449.30
2023-02-14T21:41:51.814Z,492.90
2023-02-14T21:44:37.184Z,506.40
2023-02-14T21:47:04.072Z,502.30
2023-02-14T21:49:50.181Z,483.40
2023-02-14T21:52:16.988Z,480.00
2023-02-14T21:54:43.915Z,523.10
2023-02-14T21:57:10.655Z,555.80
2023-02-14T21:59:39.527Z,525.30
2023-02-14T22:02:06.699Z,528.70
2023-02-14T22:04:37.447Z,492.20
2023-02-14T22:07:04.252Z,461.10
2023-02-14T22:09:31.663Z,442.30
2023-02-14T22:11:58.351Z,474.10
2023-02-14T22:14:28.513Z,484.50
2023-02-14T22:16:55.430Z,513.50
2023-02-14T22:19:22.255Z,526.70
2023-02-14T22:21:49.080Z,533.40
2023-02-14T22:24:15.780Z,511.80
2023-02-14T22:26:42.457Z,504.70
2023-02-14T22:29:11.747Z,522.10
2023-02-14T22:31:44.370Z,525.10
2023-02-14T22:34:14.168Z,561.30
2023-02-14T22:36:41.678Z,651.90
2023-02-14T22:39:11.240Z,596.40
2023-02-14T22:41:40.780Z,563.60
2023-02-14T22:44:08.449Z,534.70
2023-02-14T22:46:38.702Z,540.50
2023-02-14T22:49:06.870Z,524.80
2023-02-14T22:51:37.166Z,538.70
2023-02-14T22:54:07.731Z,506.70
2023-02-14T22:56:41.590Z,404.70
2023-02-14T22:59:27.490Z,390.70
2023-02-14T23:01:54.221Z,386.00
2023-02-14T23:04:23.864Z,365.70
2023-02-14T23:06:51.856Z,282.70
2023-02-14T23:09:20.103Z,236.00
2023-02-14T23:11:50.204Z,220.00
2023-02-14T23:14:36.366Z,223.60
2023-02-14T23:17:22.357Z,285.60
2023-02-14T23:20:07.371Z,286.90
2023-02-14T23:22:40.454Z,278.90
2023-02-14T23:25:10.612Z,256.40
2023-02-14T23:27:40.283Z,239.80
2023-02-14T23:30:10.932Z,222.00
2023-02-14T23:32:37.831Z,210.90
2023-02-14T23:35:05.462Z,185.70
2023-02-14T23:37:32.881Z,230.20
2023-02-14T23:39:59.543Z,250.30
2023-02-14T23:42:27.618Z,307.80
2023-02-14T23:45:14.250Z,332.50
2023-02-14T23:47:40.935Z,366.10
2023-02-14T23:50:08.287Z,373.20
2023-02-14T23:52:36.466Z,395.40
2023-02-14T23:55:05.791Z,432.80
2023-02-14T23:57:32.674Z,467.00
